Time;durP1;ratioP1;P1;durP2;ratioP2;P2;SDS_P1;SDS_P2;PMS_P1;PMS_P2;Temp;Humidity;BMP_temperature;BMP_pressure;BME280_temperature;BME280_humidity;BME280_pressure;Samples;Min_cycle;Max_cycle;Signal;HPM_P1;HPM_P2
2022/08/16 00:01:48;;;;;;;3.58;3.20;;;18.30;99.20;;;;;;5037046;28;20037;-41
2022/08/16 00:04:14;;;;;;;3.30;3.00;;;18.30;99.10;;;;;;5030718;28;20086;-39
2022/08/16 00:06:40;;;;;;;4.55;2.80;;;18.20;98.80;;;;;;5028661;28;20108;-42
2022/08/16 00:09:07;;;;;;;4.05;2.92;;;18.10;98.80;;;;;;5030836;28;20029;-42
2022/08/16 00:11:33;;;;;;;4.97;3.00;;;18.00;99.40;;;;;;5034327;28;20025;-41
2022/08/16 00:13:58;;;;;;;4.90;3.58;;;18.00;98.90;;;;;;5033834;28;20561;-35
2022/08/16 00:16:27;;;;;;;3.63;2.60;;;18.00;99.50;;;;;;5033944;28;20397;-42
2022/08/16 00:18:52;;;;;;;2.83;2.30;;;18.10;98.70;;;;;;5030807;28;20044;-36
2022/08/16 00:21:18;;;;;;;2.95;2.55;;;18.10;98.00;;;;;;5025565;28;20049;-41
2022/08/16 00:23:44;;;;;;;2.60;2.40;;;18.10;99.90;;;;;;5032040;28;20025;-41
2022/08/16 00:26:09;;;;;;;3.03;2.42;;;17.90;99.90;;;;;;5028196;28;20125;-41
2022/08/16 00:28:35;;;;;;;2.92;2.63;;;17.90;99.90;;;;;;5031984;28;20025;-37
2022/08/16 00:31:01;;;;;;;3.03;2.55;;;17.70;99.90;;;;;;5032926;28;20452;-41
2022/08/16 00:33:27;;;;;;;2.92;2.67;;;17.40;99.90;;;;;;5035169;28;20024;-42
2022/08/16 00:35:53;;;;;;;3.95;2.40;;;17.30;99.90;;;;;;5034345;28;20029;-41
2022/08/16 00:38:19;;;;;;;3.15;2.58;;;17.40;99.90;;;;;;5027989;28;20366;-40
2022/08/16 00:40:52;;;;;;;3.75;2.33;;;17.50;99.90;;;;;;5029907;28;20044;-39
2022/08/16 00:43:27;;;;;;;3.22;2.83;;;17.50;99.90;;;;;;5032724;28;20029;-41
2022/08/16 00:46:16;;;;;;;3.42;2.80;;;17.50;99.90;;;;;;5033778;28;20052;-39
2022/08/16 00:48:43;;;;;;;3.05;2.75;;;17.50;99.30;;;;;;5031350;28;20048;-42
2022/08/16 00:51:10;;;;;;;3.78;2.90;;;17.50;99.90;;;;;;5031125;28;20029;-37
2022/08/16 00:53:35;;;;;;;3.65;2.88;;;17.50;99.90;;;;;;5027245;28;20394;-42
2022/08/16 00:56:07;;;;;;;4.00;2.55;;;17.40;99.90;;;;;;5034822;28;20078;-37
2022/08/16 00:58:36;;;;;;;3.00;2.67;;;17.40;99.90;;;;;;5036167;28;20378;-42
2022/08/16 01:01:04;;;;;;;4.60;2.75;;;17.40;99.90;;;;;;5031382;28;20469;-34
2022/08/16 01:03:29;;;;;;;2.95;2.45;;;17.40;99.90;;;;;;5027193;28;20484;-33
2022/08/16 01:05:55;;;;;;;2.83;2.50;;;17.40;99.90;;;;;;5030244;28;20033;-36
2022/08/16 01:08:22;;;;;;;3.10;2.70;;;17.40;99.90;;;;;;5029163;28;20409;-34
2022/08/16 01:10:49;;;;;;;3.15;2.60;;;17.40;99.90;;;;;;5032239;28;20057;-34
2022/08/16 01:13:18;;;;;;;2.88;2.50;;;17.40;99.90;;;;;;5031065;28;20037;-33
2022/08/16 01:16:14;;;;;;;3.72;2.55;;;17.40;99.90;;;;;;5026433;28;20034;-34
2022/08/16 01:18:48;;;;;;;4.68;2.70;;;17.10;99.90;;;;;;5027845;28;20413;-33
2022/08/16 01:21:39;;;;;;;4.13;2.30;;;16.90;99.90;;;;;;5028341;28;20509;-33
2022/08/16 01:24:10;;;;;;;3.55;2.30;;;16.90;99.90;;;;;;5033584;28;20490;-33
2022/08/16 01:26:38;;;;;;;2.78;2.42;;;17.00;99.90;;;;;;5045330;28;20025;-33
2022/08/16 01:29:08;;;;;;;3.90;2.10;;;16.90;99.90;;;;;;5026554;28;20057;-32
2022/08/16 01:31:34;;;;;;;3.97;2.45;;;16.80;99.90;;;;;;5028960;28;20103;-33
2022/08/16 01:34:00;;;;;;;3.72;2.50;;;16.90;99.90;;;;;;5029670;28;20031;-37
2022/08/16 01:36:26;;;;;;;4.65;2.55;;;16.80;99.90;;;;;;5026896;28;20033;-34
2022/08/16 01:38:52;;;;;;;4.20;2.33;;;16.70;99.90;;;;;;5032230;28;20021;-35
2022/08/16 01:41:22;;;;;;;2.92;2.53;;;16.70;99.90;;;;;;5025990;28;20028;-37
2022/08/16 01:43:49;;;;;;;6.47;2.42;;;16.70;99.90;;;;;;5028426;28;20490;-37
2022/08/16 01:46:37;;;;;;;2.63;2.27;;;16.70;99.90;;;;;;5028065;28;20071;-35
2022/08/16 01:49:26;;;;;;;3.08;2.35;;;16.70;99.90;;;;;;5038654;28;20417;-38
2022/08/16 01:52:05;;;;;;;2.30;2.10;;;16.70;99.90;;;;;;5028273;28;20148;-34
2022/08/16 01:54:32;;;;;;;2.90;2.08;;;16.70;99.90;;;;;;5028155;28;20116;-37
2022/08/16 01:56:58;;;;;;;3.70;2.60;;;16.70;99.90;;;;;;5029336;28;20422;-34
2022/08/16 01:59:24;;;;;;;2.25;2.03;;;16.70;99.90;;;;;;5031721;28;20025;-35
2022/08/16 02:01:52;;;;;;;2.55;2.30;;;16.70;99.90;;;;;;5027004;28;20033;-36
2022/08/16 02:04:19;;;;;;;2.70;2.47;;;16.70;99.90;;;;;;5033857;28;20021;-36
2022/08/16 02:06:44;;;;;;;3.13;2.17;;;16.60;99.90;;;;;;5030155;28;20180;-34
2022/08/16 02:09:11;;;;;;;2.42;2.10;;;16.30;99.90;;;;;;5029286;28;20096;-33
2022/08/16 02:11:38;;;;;;;3.47;2.17;;;16.30;99.90;;;;;;5028683;28;20017;-33
2022/08/16 02:14:05;;;;;;;2.95;2.58;;;16.10;99.90;;;;;;5034438;28;20100;-34
2022/08/16 02:16:31;;;;;;;3.83;2.90;;;15.70;99.90;;;;;;5028120;28;20025;-38
2022/08/16 02:18:58;;;;;;;3.67;2.95;;;15.60;99.90;;;;;;5031604;28;20029;-35
2022/08/16 02:21:24;;;;;;;2.60;2.33;;;15.70;99.90;;;;;;5026872;28;20062;-34
2022/08/16 02:23:49;;;;;;;2.65;2.30;;;15.80;99.90;;;;;;5033842;28;20042;-33
2022/08/16 02:26:15;;;;;;;2.97;2.40;;;15.90;99.90;;;;;;5028318;28;20052;-33
2022/08/16 02:28:42;;;;;;;3.50;2.35;;;16.00;99.90;;;;;;5026933;28;20104;-34
2022/08/16 02:31:11;;;;;;;3.22;2.42;;;16.00;99.90;;;;;;5029764;28;20034;-34
2022/08/16 02:33:37;;;;;;;2.80;2.15;;;15.90;99.90;;;;;;5028742;28;20037;-35
2022/08/16 02:36:04;;;;;;;2.90;2.10;;;15.90;99.90;;;;;;5025957;28;20028;-34
2022/08/16 02:38:31;;;;;;;3.13;2.28;;;16.00;99.90;;;;;;5033314;28;20037;-33
2022/08/16 02:40:59;;;;;;;2.38;2.15;;;16.00;99.90;;;;;;5033405;28;20091;-35
2022/08/16 02:43:27;;;;;;;3.08;2.20;;;15.90;99.90;;;;;;5032094;28;20112;-33
2022/08/16 02:45:57;;;;;;;;;;;15.70;99.90;;;;;;5027695;28;20501;-33
2022/08/16 02:48:23;;;;;;;2.10;1.90;;;15.60;99.90;;;;;;5027318;28;19963;-32
2022/08/16 02:50:50;;;;;;;3.20;2.40;;;15.70;99.90;;;;;;5031023;28;20041;-32
2022/08/16 02:53:16;;;;;;;3.00;2.30;;;15.70;99.90;;;;;;5029117;28;20021;-32
2022/08/16 02:55:41;;;;;;;2.60;2.40;;;15.60;99.90;;;;;;5027219;28;21989;-32
2022/08/16 02:58:08;;;;;;;2.63;2.38;;;15.50;99.90;;;;;;5034337;28;20071;-33
2022/08/16 03:00:34;;;;;;;2.63;2.20;;;15.40;99.90;;;;;;5029603;28;20525;-32
2022/08/16 03:02:59;;;;;;;4.13;2.30;;;15.30;99.90;;;;;;5032209;28;20040;-31
2022/08/16 03:05:25;;;;;;;2.22;2.03;;;15.30;99.90;;;;;;5038365;28;20036;-34
2022/08/16 03:07:51;;;;;;;3.05;2.47;;;15.30;99.90;;;;;;5029675;28;20052;-34
2022/08/16 03:10:18;;;;;;;2.78;2.08;;;15.10;99.90;;;;;;5059755;28;20025;-31
2022/08/16 03:12:45;;;;;;;2.40;2.20;;;15.10;99.90;;;;;;5034832;28;20041;-32
2022/08/16 03:15:13;;;;;;;2.92;2.47;;;15.20;99.90;;;;;;5034059;28;20121;-31
2022/08/16 03:17:39;;;;;;;2.67;2.20;;;15.20;99.90;;;;;;5036083;28;20474;-34
2022/08/16 03:20:07;;;;;;;2.50;2.22;;;15.20;99.90;;;;;;5034787;28;20037;-33
2022/08/16 03:22:33;;;;;;;2.75;2.08;;;15.30;99.90;;;;;;5035377;28;20418;-34
2022/08/16 03:25:03;;;;;;;2.95;2.30;;;15.30;99.90;;;;;;5034356;28;20017;-31
2022/08/16 03:27:32;;;;;;;2.45;2.25;;;15.40;99.90;;;;;;5029633;28;20478;-32
2022/08/16 03:30:05;;;;;;;2.35;2.15;;;15.40;99.90;;;;;;5033005;28;20101;-34
2022/08/16 03:32:31;;;;;;;1.88;1.77;;;15.40;99.90;;;;;;5059340;28;20037;-35
2022/08/16 03:34:56;;;;;;;3.00;2.70;;;15.20;99.90;;;;;;5029586;28;20025;-31
2022/08/16 03:37:22;;;;;;;2.20;2.08;;;15.10;99.90;;;;;;5031404;28;20030;-31
2022/08/16 03:39:47;;;;;;;1.88;1.77;;;14.80;99.90;;;;;;5034296;28;20025;-33
2022/08/16 03:42:13;;;;;;;1.80;1.70;;;14.90;99.90;;;;;;5030966;28;20086;-32
2022/08/16 03:44:42;;;;;;;2.40;2.05;;;14.90;99.90;;;;;;5029632;28;20033;-31
2022/08/16 03:47:08;;;;;;;3.17;2.17;;;14.90;99.90;;;;;;5032297;28;20103;-31
2022/08/16 03:49:35;;;;;;;2.20;1.95;;;14.80;99.90;;;;;;5032580;28;20029;-32
2022/08/16 03:52:00;;;;;;;2.10;1.90;;;14.90;99.90;;;;;;5030228;28;20041;-35
2022/08/16 03:54:26;;;;;;;2.63;2.42;;;14.90;99.90;;;;;;5027576;28;20409;-31
2022/08/16 03:56:52;;;;;;;2.80;2.38;;;14.90;99.90;;;;;;5028723;28;20110;-32
2022/08/16 03:59:17;;;;;;;2.72;2.30;;;14.80;99.90;;;;;;5036032;28;20044;-32
2022/08/16 04:01:43;;;;;;;3.15;2.50;;;14.70;99.90;;;;;;5032609;28;20052;-31
2022/08/16 04:04:09;;;;;;;3.40;2.50;;;14.70;99.90;;;;;;5028514;28;20554;-31
2022/08/16 04:06:34;;;;;;;2.65;2.28;;;14.70;99.90;;;;;;5033395;28;20025;-34
2022/08/16 04:09:00;;;;;;;4.57;2.75;;;14.80;99.90;;;;;;5031861;28;20026;-33
2022/08/16 04:11:25;;;;;;;2.40;2.15;;;14.70;99.90;;;;;;5030937;28;20112;-36
2022/08/16 04:13:51;;;;;;;3.40;2.45;;;14.70;99.90;;;;;;5029826;28;20041;-31
2022/08/16 04:16:17;;;;;;;3.38;2.20;;;14.80;99.90;;;;;;5035926;28;20025;-31
2022/08/16 04:18:43;;;;;;;3.30;2.38;;;14.80;99.90;;;;;;5030165;28;20079;-31
2022/08/16 04:21:09;;;;;;;3.85;2.50;;;14.80;99.90;;;;;;5029728;28;20061;-33
2022/08/16 04:23:36;;;;;;;4.63;2.58;;;14.70;99.90;;;;;;5029786;28;21716;-32
2022/08/16 04:26:02;;;;;;;3.63;2.70;;;14.70;99.90;;;;;;5030459;28;20382;-34
2022/08/16 04:28:28;;;;;;;4.15;2.60;;;14.70;99.90;;;;;;5029305;28;20287;-34
2022/08/16 04:30:54;;;;;;;4.70;2.40;;;14.80;99.90;;;;;;5032973;28;20033;-36
2022/08/16 04:33:20;;;;;;;2.10;1.92;;;14.80;99.90;;;;;;5029864;28;20034;-34
2022/08/16 04:35:45;;;;;;;3.75;2.40;;;14.80;99.90;;;;;;5045217;28;20095;-34
2022/08/16 04:38:11;;;;;;;5.15;2.50;;;14.80;99.90;;;;;;5031712;28;20481;-34
2022/08/16 04:40:37;;;;;;;5.88;2.05;;;14.80;99.90;;;;;;5032414;28;20032;-33
2022/08/16 04:43:03;;;;;;;3.38;1.63;;;14.80;99.90;;;;;;5031183;28;20036;-34
2022/08/16 04:45:29;;;;;;;2.42;1.63;;;14.80;99.90;;;;;;5033392;28;20995;-36
2022/08/16 04:47:54;;;;;;;3.47;1.60;;;14.80;99.90;;;;;;5031632;28;20033;-32
2022/08/16 04:50:22;;;;;;;1.00;1.00;;;14.80;99.90;;;;;;5031905;28;20021;-35
2022/08/16 04:52:50;;;;;;;2.42;1.30;;;14.80;99.90;;;;;;5030875;28;20040;-35
2022/08/16 04:55:18;;;;;;;1.50;1.20;;;14.70;99.90;;;;;;5031488;28;20037;-32
2022/08/16 04:57:46;;;;;;;3.10;1.50;;;14.80;99.90;;;;;;5033688;28;20029;-34
2022/08/16 05:00:16;;;;;;;2.63;2.20;;;14.80;99.90;;;;;;5027289;28;20152;-32
2022/08/16 05:02:42;;;;;;;3.70;2.35;;;14.80;99.90;;;;;;5025554;28;20562;-33
2022/08/16 05:05:09;;;;;;;1.88;1.75;;;14.70;99.90;;;;;;5026277;28;20033;-31
2022/08/16 05:07:35;;;;;;;2.25;2.00;;;14.80;99.90;;;;;;5025943;28;20750;-32
2022/08/16 05:10:02;;;;;;;2.53;1.83;;;14.80;99.90;;;;;;5033591;28;20024;-34
2022/08/16 05:12:27;;;;;;;2.97;2.05;;;14.80;99.90;;;;;;5035048;28;20064;-32
2022/08/16 05:14:53;;;;;;;2.55;2.20;;;14.90;99.90;;;;;;5027723;28;20048;-32
2022/08/16 05:17:19;;;;;;;3.22;2.00;;;14.80;99.90;;;;;;5030866;28;20041;-34
2022/08/16 05:19:44;;;;;;;2.42;1.83;;;14.70;99.90;;;;;;5026777;28;20040;-34
2022/08/16 05:22:10;;;;;;;2.40;2.13;;;14.60;99.90;;;;;;5033122;28;20033;-32
2022/08/16 05:24:36;;;;;;;2.38;2.17;;;14.70;99.90;;;;;;5027122;28;20055;-35
2022/08/16 05:27:01;;;;;;;3.92;2.83;;;14.90;99.90;;;;;;5029289;28;20030;-35
2022/08/16 05:29:27;;;;;;;4.03;2.63;;;15.00;99.90;;;;;;5028044;28;20055;-33
2022/08/16 05:31:52;;;;;;;2.88;2.50;;;15.10;99.90;;;;;;5039223;28;20037;-32
2022/08/16 05:34:20;;;;;;;3.70;3.00;;;15.20;99.90;;;;;;5029981;28;20116;-32
2022/08/16 05:36:48;;;;;;;6.40;2.83;;;15.20;99.90;;;;;;5029018;28;20075;-32
2022/08/16 05:39:14;;;;;;;2.97;2.67;;;15.30;99.90;;;;;;5028386;28;20103;-33
2022/08/16 05:41:39;;;;;;;4.10;2.85;;;15.40;99.90;;;;;;5030444;28;20037;-35
2022/08/16 05:44:05;;;;;;;4.05;3.00;;;15.40;99.90;;;;;;5029651;28;20036;-32
2022/08/16 05:46:31;;;;;;;5.55;3.00;;;15.60;99.90;;;;;;5026249;28;20382;-35
2022/08/16 05:49:00;;;;;;;3.03;2.72;;;15.70;99.90;;;;;;5024223;28;20037;-32
2022/08/16 05:51:26;;;;;;;5.10;3.50;;;15.80;99.90;;;;;;5026197;28;20028;-34
2022/08/16 05:53:51;;;;;;;4.78;3.00;;;15.90;99.90;;;;;;5030166;28;20491;-34
2022/08/16 05:56:17;;;;;;;3.75;3.03;;;16.00;99.90;;;;;;5028530;28;20029;-32
2022/08/16 05:58:43;;;;;;;4.28;3.67;;;16.00;99.90;;;;;;5026827;28;21592;-32
2022/08/16 06:01:08;;;;;;;3.08;2.78;;;16.10;99.90;;;;;;5025558;28;20040;-34
2022/08/16 06:03:34;;;;;;;4.90;3.05;;;16.10;99.90;;;;;;5031836;28;20029;-32
2022/08/16 06:06:00;;;;;;;3.75;3.05;;;16.20;99.90;;;;;;5026984;28;20061;-34
2022/08/16 06:08:26;;;;;;;3.28;2.97;;;16.20;99.90;;;;;;5027003;28;20032;-34
2022/08/16 06:10:53;;;;;;;3.45;2.92;;;16.40;99.90;;;;;;5030110;28;20025;-33
2022/08/16 06:13:18;;;;;;;3.70;3.10;;;16.70;99.90;;;;;;5032039;28;20034;-33
2022/08/16 06:15:44;;;;;;;3.83;2.88;;;16.90;99.90;;;;;;5027939;28;20052;-32
2022/08/16 06:18:10;;;;;;;4.97;3.00;;;16.90;99.90;;;;;;5038784;28;20108;-33
2022/08/16 06:20:35;;;;;;;4.05;2.90;;;17.00;99.90;;;;;;5023868;28;20597;-33
2022/08/16 06:23:01;;;;;;;3.63;2.50;;;17.10;99.90;;;;;;5030317;28;20037;-36
2022/08/16 06:25:27;;;;;;;3.45;2.67;;;17.20;99.90;;;;;;5028053;28;20025;-36
2022/08/16 06:27:53;;;;;;;5.05;3.13;;;17.30;99.90;;;;;;5027657;28;20464;-32
2022/08/16 06:30:19;;;;;;;4.60;2.65;;;17.40;99.90;;;;;;5034241;28;20033;-33
2022/08/16 06:32:45;;;;;;;3.42;2.42;;;17.40;99.90;;;;;;5032499;28;20537;-36
2022/08/16 06:35:12;;;;;;;3.33;2.35;;;17.70;99.90;;;;;;5034448;28;20057;-33
2022/08/16 06:37:39;;;;;;;2.97;2.70;;;17.80;99.90;;;;;;5032513;28;20061;-35
2022/08/16 06:40:05;;;;;;;2.35;2.15;;;18.00;99.90;;;;;;5025361;28;20025;-33
2022/08/16 06:42:31;;;;;;;3.38;2.30;;;18.20;99.90;;;;;;5030895;28;20397;-32
2022/08/16 06:44:57;;;;;;;2.55;2.33;;;18.30;99.90;;;;;;5031046;28;20033;-35
2022/08/16 06:47:23;;;;;;;5.20;3.72;;;18.50;99.90;;;;;;5029246;28;20762;-32
2022/08/16 06:49:49;;;;;;;4.25;2.13;;;18.60;99.90;;;;;;5030516;28;20076;-35
2022/08/16 06:52:15;;;;;;;3.47;2.10;;;18.90;99.90;;;;;;5030343;28;20386;-36
2022/08/16 06:54:41;;;;;;;3.22;2.47;;;19.10;99.90;;;;;;5044378;28;20041;-33
2022/08/16 06:57:09;;;;;;;3.50;2.00;;;19.20;99.90;;;;;;5033978;28;20080;-33
2022/08/16 06:59:35;;;;;;;;;;;19.50;99.90;;;;;;5031140;28;20090;-34
2022/08/16 07:02:01;;;;;;;2.47;1.90;;;19.70;99.60;;;;;;5032079;28;19916;-34
2022/08/16 07:04:27;;;;;;;2.55;2.22;;;19.90;98.80;;;;;;5035296;28;20074;-35
2022/08/16 07:06:53;;;;;;;2.42;2.22;;;20.10;96.60;;;;;;5030308;28;20028;-33
2022/08/16 07:09:19;;;;;;;3.45;2.28;;;20.20;96.30;;;;;;5037081;28;20021;-36
2022/08/16 07:11:45;;;;;;;2.80;2.00;;;20.30;95.30;;;;;;5027716;28;20033;-33
2022/08/16 07:14:11;;;;;;;3.90;2.55;;;20.40;94.60;;;;;;5036492;28;20029;-36
2022/08/16 07:16:37;;;;;;;3.08;2.28;;;20.30;93.30;;;;;;5027962;28;20686;-35
2022/08/16 07:19:02;;;;;;;3.17;2.53;;;20.10;94.10;;;;;;5036012;28;20032;-34
2022/08/16 07:21:28;;;;;;;2.45;2.08;;;20.20;94.90;;;;;;5035437;28;20041;-32
2022/08/16 07:23:54;;;;;;;2.38;2.17;;;20.40;93.20;;;;;;5033212;28;20465;-35
2022/08/16 07:26:23;;;;;;;2.10;2.00;;;20.70;93.20;;;;;;5028473;28;20115;-34
2022/08/16 07:28:49;;;;;;;2.33;2.13;;;20.70;92.60;;;;;;5038084;28;20014;-33
2022/08/16 07:31:16;;;;;;;3.95;2.47;;;20.90;91.30;;;;;;5032236;28;20507;-35
2022/08/16 07:33:43;;;;;;;2.28;2.08;;;21.20;90.20;;;;;;5038045;28;20025;-32
2022/08/16 07:36:10;;;;;;;3.17;2.67;;;21.20;87.50;;;;;;5030365;28;20039;-35
2022/08/16 07:38:38;;;;;;;2.90;2.37;;;21.10;89.40;;;;;;5036144;28;20050;-32
2022/08/16 07:41:04;;;;;;;2.33;2.13;;;21.20;88.30;;;;;;5030942;28;20056;-33
2022/08/16 07:43:31;;;;;;;3.30;2.35;;;21.10;86.00;;;;;;5030449;28;20070;-33
2022/08/16 07:45:58;;;;;;;4.40;2.35;;;20.90;85.70;;;;;;5025987;28;20041;-36
2022/08/16 07:48:24;;;;;;;3.97;2.70;;;21.10;89.80;;;;;;5032777;28;20026;-33
2022/08/16 07:50:50;;;;;;;3.33;2.25;;;21.40;87.60;;;;;;5033285;28;20037;-33
2022/08/16 07:53:16;;;;;;;2.45;2.20;;;21.60;86.40;;;;;;5035618;28;20029;-35
2022/08/16 07:55:41;;;;;;;3.05;2.47;;;21.90;86.40;;;;;;5036992;28;20490;-32
2022/08/16 07:58:07;;;;;;;2.70;2.50;;;22.00;84.70;;;;;;5035997;28;20036;-32
2022/08/16 08:00:33;;;;;;;3.38;2.38;;;22.30;84.40;;;;;;5037595;28;20033;-33
2022/08/16 08:02:59;;;;;;;2.50;2.30;;;22.60;84.00;;;;;;5035191;28;20029;-32
2022/08/16 08:05:26;;;;;;;2.83;2.33;;;22.70;81.30;;;;;;5032046;28;20033;-34
2022/08/16 08:07:52;;;;;;;2.50;2.30;;;22.80;77.70;;;;;;5032462;28;20032;-32
2022/08/16 08:10:19;;;;;;;2.30;2.00;;;22.80;77.80;;;;;;5034110;28;20022;-33
2022/08/16 08:12:50;;;;;;;3.58;2.28;;;22.90;77.10;;;;;;5031476;28;20195;-33
2022/08/16 08:15:17;;;;;;;2.58;2.38;;;22.60;74.70;;;;;;5032087;28;20040;-32
2022/08/16 08:17:43;;;;;;;3.33;2.58;;;22.90;73.30;;;;;;5027151;28;20401;-31
2022/08/16 08:20:11;;;;;;;4.50;2.40;;;23.20;70.10;;;;;;5032357;28;22231;-32
2022/08/16 08:22:38;;;;;;;2.92;2.50;;;23.00;68.90;;;;;;5028759;28;20048;-34
2022/08/16 08:25:04;;;;;;;4.43;2.80;;;22.80;69.90;;;;;;5031178;28;20021;-35
2022/08/16 08:27:30;;;;;;;5.90;2.80;;;23.10;72.60;;;;;;5031161;28;20025;-32
2022/08/16 08:29:57;;;;;;;2.88;2.65;;;23.30;71.00;;;;;;5031741;28;20497;-32
2022/08/16 08:32:27;;;;;;;2.80;2.50;;;23.50;67.90;;;;;;5028017;28;20050;-35
2022/08/16 08:34:53;;;;;;;4.90;3.22;;;23.70;68.10;;;;;;5036309;28;20033;-32
2022/08/16 08:37:20;;;;;;;3.22;2.33;;;23.90;68.10;;;;;;5036377;28;20120;-31
2022/08/16 08:39:46;;;;;;;2.88;2.47;;;24.20;67.30;;;;;;5032031;28;20025;-32
2022/08/16 08:42:14;;;;;;;4.40;2.80;;;24.40;64.50;;;;;;5032690;28;20494;-34
2022/08/16 08:44:40;;;;;;;6.25;2.95;;;23.90;66.30;;;;;;5032120;28;20099;-36
2022/08/16 08:47:06;;;;;;;3.08;2.78;;;24.10;66.10;;;;;;5032019;28;20041;-32
2022/08/16 08:49:34;;;;;;;2.60;2.40;;;23.80;66.40;;;;;;5033185;28;20104;-32
2022/08/16 08:52:00;;;;;;;2.78;2.47;;;23.80;64.40;;;;;;5030819;28;20021;-33
2022/08/16 08:54:25;;;;;;;2.50;2.30;;;24.30;66.90;;;;;;5034590;28;20033;-31
2022/08/16 08:56:52;;;;;;;3.55;2.63;;;24.50;66.30;;;;;;5031506;28;20104;-32
2022/08/16 08:59:18;;;;;;;4.63;3.10;;;24.80;62.50;;;;;;5032643;28;20038;-32
2022/08/16 09:01:44;;;;;;;3.60;3.10;;;24.80;61.60;;;;;;5029102;28;20036;-32
2022/08/16 09:04:10;;;;;;;4.13;2.60;;;25.10;61.40;;;;;;5032197;28;20087;-32
2022/08/16 09:06:37;;;;;;;3.97;2.50;;;25.20;58.70;;;;;;5035045;28;20025;-32
2022/08/16 09:09:04;;;;;;;4.38;2.63;;;24.90;60.10;;;;;;5030236;28;20036;-34
2022/08/16 09:11:30;;;;;;;3.30;2.90;;;24.70;60.90;;;;;;5036146;28;20049;-32
2022/08/16 09:13:56;;;;;;;5.38;2.80;;;25.00;60.60;;;;;;5035519;28;20079;-32
2022/08/16 09:16:21;;;;;;;3.60;2.92;;;25.20;58.50;;;;;;5025499;28;20433;-33
2022/08/16 09:18:47;;;;;;;3.30;2.50;;;25.10;58.30;;;;;;5029192;28;20029;-31
2022/08/16 09:21:13;;;;;;;3.05;2.70;;;25.20;58.00;;;;;;5035503;28;20076;-32
2022/08/16 09:23:39;;;;;;;4.38;2.90;;;24.80;58.80;;;;;;5032815;28;20528;-32
2022/08/16 09:26:14;;;;;;;3.28;2.55;;;24.70;58.10;;;;;;5034725;28;20116;-33
2022/08/16 09:28:40;;;;;;;2.90;2.70;;;24.70;57.20;;;;;;5024328;28;20139;-32
2022/08/16 09:31:06;;;;;;;3.47;2.80;;;25.00;56.80;;;;;;5021038;28;20542;-32
2022/08/16 09:33:32;;;;;;;3.60;2.70;;;25.10;56.30;;;;;;5026679;28;20144;-32
2022/08/16 09:35:58;;;;;;;3.13;2.83;;;25.40;55.40;;;;;;5021990;28;20135;-32
2022/08/16 09:38:25;;;;;;;3.47;2.65;;;25.70;55.70;;;;;;5027515;28;20033;-32
2022/08/16 09:40:51;;;;;;;3.53;2.78;;;25.50;53.90;;;;;;5030165;28;20037;-32
2022/08/16 09:43:19;;;;;;;6.30;2.95;;;25.30;52.60;;;;;;5027643;28;20398;-34
2022/08/16 09:45:46;;;;;;;4.03;2.60;;;25.70;55.90;;;;;;5028858;28;20037;-32
2022/08/16 09:48:13;;;;;;;3.10;2.80;;;26.40;54.00;;;;;;5028737;28;20097;-36
2022/08/16 09:50:40;;;;;;;3.95;2.88;;;26.60;52.70;;;;;;5033541;28;20756;-33
2022/08/16 09:53:15;;;;;;;2.90;2.65;;;26.10;52.60;;;;;;5024993;28;20048;-32
2022/08/16 09:55:42;;;;;;;3.78;2.83;;;26.50;48.80;;;;;;5025085;28;20032;-33
2022/08/16 09:58:08;;;;;;;3.08;2.78;;;26.70;49.00;;;;;;5032967;28;20044;-32
2022/08/16 10:00:34;;;;;;;5.10;2.80;;;26.90;48.50;;;;;;5032804;28;20037;-35
2022/08/16 10:03:00;;;;;;;3.60;2.72;;;26.90;48.40;;;;;;5030613;28;20630;-36
2022/08/16 10:05:25;;;;;;;2.80;2.60;;;26.30;49.10;;;;;;5030606;28;20382;-32
2022/08/16 10:07:51;;;;;;;3.45;2.97;;;26.60;50.90;;;;;;5030757;28;20032;-33
2022/08/16 10:10:21;;;;;;;5.82;2.95;;;27.00;49.30;;;;;;5032972;28;20072;-32
2022/08/16 10:15:33;;;;;;;3.50;2.75;;;27.40;49.40;;;;;;5037944;28;20410;-36
2022/08/16 10:18:00;;;;;;;3.20;2.63;;;27.20;49.30;;;;;;5036698;28;20071;-33
2022/08/16 10:20:26;;;;;;;3.27;2.67;;;26.70;49.40;;;;;;5037204;28;20049;-33
2022/08/16 10:22:53;;;;;;;3.17;2.50;;;26.60;49.40;;;;;;5032431;28;20078;-34
2022/08/16 10:25:19;;;;;;;4.03;2.70;;;26.40;50.60;;;;;;5028835;28;20388;-32
2022/08/16 10:27:46;;;;;;;2.88;2.60;;;26.70;49.70;;;;;;5033958;28;20079;-32
2022/08/16 10:30:13;;;;;;;3.20;2.90;;;26.80;48.50;;;;;;5034144;28;20028;-32
2022/08/16 10:32:39;;;;;;;3.37;3.10;;;26.80;49.20;;;;;;5036784;28;20041;-36
2022/08/16 10:35:05;;;;;;;3.05;2.60;;;26.60;49.30;;;;;;5031965;28;20879;-32
2022/08/16 10:37:31;;;;;;;3.70;2.70;;;26.90;46.50;;;;;;5037813;28;20055;-31
2022/08/16 10:39:56;;;;;;;3.63;2.85;;;26.70;47.10;;;;;;5036626;28;20033;-33
2022/08/16 10:42:22;;;;;;;3.88;2.75;;;26.30;47.90;;;;;;5037736;28;20832;-32
2022/08/16 10:44:48;;;;;;;3.72;2.75;;;26.80;49.00;;;;;;5031771;28;20387;-33
2022/08/16 10:47:14;;;;;;;3.80;3.47;;;26.70;46.60;;;;;;5032690;28;20048;-36
2022/08/16 10:49:39;;;;;;;3.50;2.80;;;26.50;46.20;;;;;;5034751;28;20021;-36
2022/08/16 10:52:05;;;;;;;2.80;2.60;;;26.70;47.70;;;;;;5030979;28;20027;-33
2022/08/16 10:54:31;;;;;;;7.07;2.90;;;26.70;48.50;;;;;;5034767;28;20079;-33
2022/08/16 10:57:03;;;;;;;3.47;2.78;;;26.80;47.50;;;;;;5031885;28;20171;-33
2022/08/16 10:59:32;;;;;;;2.80;2.58;;;26.70;46.00;;;;;;5033138;28;20025;-34
2022/08/16 11:01:58;;;;;;;2.88;2.60;;;26.90;46.30;;;;;;5032321;28;20506;-33
2022/08/16 11:04:25;;;;;;;3.30;2.80;;;27.00;45.10;;;;;;5031984;28;20033;-35
2022/08/16 11:06:51;;;;;;;4.72;2.45;;;27.30;45.00;;;;;;5029797;28;20033;-36
2022/08/16 11:09:16;;;;;;;5.10;2.90;;;27.40;44.40;;;;;;5035530;28;20021;-33
2022/08/16 11:11:42;;;;;;;3.15;2.60;;;27.70;43.50;;;;;;5035031;28;20024;-36
2022/08/16 11:14:08;;;;;;;4.07;2.72;;;27.50;43.70;;;;;;5031265;28;20033;-33
2022/08/16 11:16:33;;;;;;;2.70;2.47;;;27.60;42.80;;;;;;5035874;28;20419;-33
2022/08/16 11:18:59;;;;;;;4.40;2.50;;;27.30;44.20;;;;;;5026857;28;20827;-34
2022/08/16 11:21:25;;;;;;;4.70;2.60;;;27.10;42.80;;;;;;5030456;28;20130;-33
2022/08/16 11:23:53;;;;;;;3.88;2.53;;;27.20;44.50;;;;;;5037060;28;20163;-32
2022/08/16 11:26:19;;;;;;;3.28;2.50;;;27.30;43.00;;;;;;5027697;28;20036;-36
2022/08/16 11:28:47;;;;;;;3.45;2.67;;;27.20;42.50;;;;;;5037973;28;20061;-35
2022/08/16 11:31:13;;;;;;;2.67;2.45;;;27.20;44.10;;;;;;5036766;28;20067;-32
2022/08/16 11:33:38;;;;;;;2.97;2.72;;;27.30;43.50;;;;;;5034732;28;20064;-33
2022/08/16 11:36:04;;;;;;;3.28;2.70;;;27.00;45.90;;;;;;5041208;28;20042;-32
2022/08/16 11:38:30;;;;;;;2.95;2.67;;;26.80;44.10;;;;;;5035690;28;20041;-32
2022/08/16 11:40:57;;;;;;;2.92;2.67;;;26.80;44.90;;;;;;5033613;28;20029;-33
2022/08/16 11:43:28;;;;;;;2.63;2.42;;;26.50;44.40;;;;;;5033742;28;20098;-33
2022/08/16 11:45:57;;;;;;;3.17;2.70;;;26.70;44.60;;;;;;5032912;28;20021;-36
2022/08/16 11:48:25;;;;;;;2.83;2.53;;;26.60;45.40;;;;;;5034389;28;20087;-34
2022/08/16 11:50:51;;;;;;;3.47;2.50;;;26.80;43.60;;;;;;5034859;28;20078;-34
2022/08/16 11:53:18;;;;;;;3.13;2.83;;;26.80;45.20;;;;;;5034505;28;20041;-33
2022/08/16 11:55:43;;;;;;;2.77;2.57;;;26.90;44.40;;;;;;5030168;28;20034;-36
2022/08/16 11:58:10;;;;;;;2.83;2.63;;;27.00;45.60;;;;;;5035455;28;20538;-35
2022/08/16 12:00:37;;;;;;;3.38;2.88;;;26.90;45.30;;;;;;5031224;28;20029;-33
2022/08/16 12:03:02;;;;;;;3.67;2.90;;;26.70;45.20;;;;;;5033677;28;20064;-33
2022/08/16 12:05:29;;;;;;;4.40;2.78;;;26.40;45.90;;;;;;5029599;28;20064;-34
2022/08/16 12:07:55;;;;;;;3.03;2.75;;;26.60;44.80;;;;;;5032270;28;20025;-32
2022/08/16 12:10:28;;;;;;;4.22;2.70;;;26.90;44.00;;;;;;5034757;28;20033;-32
2022/08/16 12:12:54;;;;;;;4.80;3.00;;;27.20;44.10;;;;;;5037088;28;20041;-33
2022/08/16 12:15:20;;;;;;;3.08;2.78;;;27.20;44.00;;;;;;5036296;28;21280;-33
2022/08/16 12:17:47;;;;;;;3.75;2.60;;;27.30;43.00;;;;;;5037856;28;20606;-34
2022/08/16 12:20:19;;;;;;;3.55;3.15;;;27.20;42.30;;;;;;5034606;28;20482;-33
2022/08/16 12:22:45;;;;;;;3.53;2.88;;;27.10;43.70;;;;;;5030982;28;20038;-33
2022/08/16 12:25:15;;;;;;;4.80;3.75;;;27.00;43.80;;;;;;5035389;28;20501;-36
2022/08/16 12:27:43;;;;;;;3.33;2.75;;;27.20;43.70;;;;;;5022320;28;20053;-35
2022/08/16 12:30:11;;;;;;;3.90;2.95;;;27.30;43.10;;;;;;5032657;28;20037;-32
2022/08/16 12:32:37;;;;;;;2.70;2.50;;;27.00;42.20;;;;;;5034485;28;20052;-34
2022/08/16 12:35:04;;;;;;;5.57;3.10;;;27.00;43.50;;;;;;5034929;28;20037;-33
2022/08/16 12:37:30;;;;;;;2.97;2.70;;;26.90;43.30;;;;;;5031896;28;20482;-33
2022/08/16 12:39:55;;;;;;;5.32;2.70;;;26.80;41.40;;;;;;5031453;28;20033;-33
2022/08/16 12:42:22;;;;;;;2.65;2.47;;;26.90;42.10;;;;;;5032559;28;20485;-33
2022/08/16 12:44:48;;;;;;;3.17;2.75;;;26.90;43.30;;;;;;5030775;28;20029;-32
2022/08/16 12:50:00;;;;;;;3.50;2.92;;;27.00;43.30;;;;;;5033071;28;20725;-35
2022/08/16 12:52:26;;;;;;;2.97;2.60;;;27.30;43.40;;;;;;5030245;28;20028;-32